Thermopolis, WY (82443)

3:37 AM MST on December 07, 2016 (GMT -0700)
APRSWXNET | | Change Station

Elev 4425 ft 43.64 °N, 108.23 °W | Updated 32 minutes ago

Overcast
Overcast
9 °F
Feels Like 0 °F
N
5
Wind Variable Wind from North
Gusts 0.0 mph

Today
High -- | Low -- °F
--% Chance of Precip.
Yesterday
High -- | Low -- °F
Precip. -- in
Pressure 30.36 in
Visibility 10.0 miles
Clouds Overcast 4600 ft
Windchill 0 °F
Dew Point 3 °F
Humidity 76%
Rainfall in
Snow Depth Not available.
7:33 AM 4:35 PM
Waxing Crescent, 51% visible
METAR KWRL 070953Z AUTO 33006KT 10SM OVC046 M12/M16 A3015 RMK AO2 SLP280 T11221156
Pressure 30.36 in
Visibility 10.0 miles
Clouds Overcast 4600 ft
Windchill 0 °F
Dew Point 3 °F
Humidity 76%
Rainfall in
Snow Depth Not available.
7:33 AM 4:35 PM
Waxing Crescent, 51% visible
METAR KWRL 070953Z AUTO 33006KT 10SM OVC046 M12/M16 A3015 RMK AO2 SLP280 T11221156

10-Day Weather Forecast

Almanac

Astronomy

Dec. 07, 2016 Rise Set
Actual Time
Civil Twilight
Nautical Twilight
Astronomical Twilight
Moon
Length of Visible Light
Length of Day
Tomorrow will be .
, % of the Moon is Illuminated

Today's Extremes

State Highs State Lows

Community

WunderPhotos

Upload Photos

1,956,111 photos uploaded!

WunderBlog® & News

Nearby

Air Quality

  Air Quality AQ Index Pollutant
Not available.

Snow Depth

Station Depth Elevation

Earthquake Activity

City Distance Mag. Time & Date
Minimum magnitude displayed is 2.5.

Coastal Water Temperatures

Place Temperature

Stations

Nearby Weather Stations

Station Location Temp. Windchill Dew Point Humidity Wind Precip. Elev Updated Type
                   

Watches & Warnings

There are currently no watches in effect.